createdAt,value
2019-04-25T00:00:57.404Z,99710.93
2019-04-25T00:03:27.452Z,99723.27
2019-04-25T00:06:06.752Z,99722.05
2019-04-25T00:08:34.172Z,99723.09
2019-04-25T00:11:02.950Z,99722.47
2019-04-25T00:13:31.716Z,99711.65
2019-04-25T00:15:59.267Z,99715.20
2019-04-25T00:18:26.836Z,99715.27
2019-04-25T00:20:58.917Z,99716.92
2019-04-25T00:23:26.395Z,99719.94
2019-04-25T00:26:02.570Z,99729.46
2019-04-25T00:28:29.751Z,99732.87
2019-04-25T00:30:57.262Z,99732.73
2019-04-25T00:33:24.726Z,99735.56
2019-04-25T00:35:52.782Z,99733.95
2019-04-25T00:38:20.194Z,99729.82
2019-04-25T00:40:48.075Z,99735.58
2019-04-25T00:43:15.622Z,99734.51
2019-04-25T00:45:44.309Z,99728.20
2019-04-25T00:48:15.478Z,99735.34
2019-04-25T00:50:43.426Z,99747.19
2019-04-25T00:53:11.789Z,99744.06
2019-04-25T00:55:39.067Z,99749.30
2019-04-25T00:58:15.200Z,99740.63
2019-04-25T01:00:53.372Z,99738.20
2019-04-25T01:03:25.212Z,99739.56
2019-04-25T01:05:53.666Z,99741.95
2019-04-25T01:08:22.059Z,99745.80
2019-04-25T01:10:50.402Z,99749.59
2019-04-25T01:13:18.780Z,99750.30
2019-04-25T01:15:46.416Z,99751.86
2019-04-25T01:18:13.854Z,99757.31
2019-04-25T01:20:41.129Z,99757.84
2019-04-25T01:23:08.621Z,99761.20
2019-04-25T01:25:40.925Z,99763.63
2019-04-25T01:28:05.540Z,99766.39
2019-04-25T01:30:33.979Z,99757.37
2019-04-25T01:33:01.449Z,99764.00
2019-04-25T01:35:41.256Z,99767.17
2019-04-25T01:38:17.649Z,99778.22
2019-04-25T01:40:55.621Z,99773.02
2019-04-25T01:43:55.149Z,99779.30
2019-04-25T01:46:21.846Z,99781.11
2019-04-25T01:48:50.083Z,99775.20
2019-04-25T01:51:17.751Z,99773.67
2019-04-25T01:53:45.115Z,99773.66
2019-04-25T01:56:13.544Z,99772.12
2019-04-25T01:58:41.316Z,99765.31
2019-04-25T02:01:09.110Z,99772.41
2019-04-25T02:03:36.526Z,99774.17
2019-04-25T02:06:05.053Z,99774.66
2019-04-25T02:08:33.977Z,99779.02
2019-04-25T02:11:24.085Z,99785.24
2019-04-25T02:13:51.517Z,99781.02
2019-04-25T02:16:19.026Z,99786.81
2019-04-25T02:18:46.285Z,99787.83
2019-04-25T02:21:13.866Z,99790.55
2019-04-25T02:23:41.516Z,99790.22
2019-04-25T02:26:15.630Z,99791.34
2019-04-25T02:28:38.026Z,99781.69
2019-04-25T02:31:08.615Z,99777.30
2019-04-25T02:33:34.441Z,99783.55
2019-04-25T02:36:04.073Z,99781.13
2019-04-25T02:38:31.081Z,99792.70
2019-04-25T02:40:59.493Z,99786.67
2019-04-25T02:43:27.723Z,99786.67
2019-04-25T02:46:34.811Z,99802.31
2019-04-25T02:49:29.966Z,99797.36
2019-04-25T02:52:00.774Z,99796.58
2019-04-25T02:54:28.436Z,99799.16
2019-04-25T02:56:56.997Z,99802.75
2019-04-25T02:59:25.358Z,99801.59
2019-04-25T03:01:54.172Z,99800.23
2019-04-25T03:04:23.897Z,99799.16
2019-04-25T03:06:51.022Z,99797.89
2019-04-25T03:09:18.292Z,99797.36
2019-04-25T03:11:47.709Z,99799.80
2019-04-25T03:14:15.006Z,99799.80
2019-04-25T03:16:44.644Z,99798.13
2019-04-25T03:19:30.310Z,99806.05
2019-04-25T03:22:00.167Z,99807.84
2019-04-25T03:24:28.277Z,99808.48
2019-04-25T03:26:55.634Z,99801.33
2019-04-25T03:29:24.671Z,99810.13
2019-04-25T03:31:52.285Z,99808.52
2019-04-25T03:34:20.752Z,99807.98
2019-04-25T03:36:48.204Z,99814.28
2019-04-25T03:39:16.518Z,99815.22
2019-04-25T03:41:45.459Z,99812.83
2019-04-25T03:44:16.702Z,99822.72
2019-04-25T03:46:44.192Z,99817.29
2019-04-25T03:49:11.860Z,99819.38
2019-04-25T03:51:39.157Z,99814.39
2019-04-25T03:54:07.498Z,99814.69
2019-04-25T03:56:35.816Z,99823.70
2019-04-25T03:59:05.824Z,99831.41
2019-04-25T04:01:34.153Z,99832.56
2019-04-25T04:04:04.313Z,99841.59
2019-04-25T04:06:30.862Z,99845.46
2019-04-25T04:08:57.996Z,99838.20
2019-04-25T04:11:25.121Z,99843.59
2019-04-25T04:13:53.516Z,99851.65
2019-04-25T04:16:23.951Z,99842.00
2019-04-25T04:18:54.091Z,99856.39
2019-04-25T04:21:46.970Z,99858.06
2019-04-25T04:24:34.237Z,99845.54
2019-04-25T04:27:17.817Z,99847.97
2019-04-25T04:29:45.066Z,99852.62
2019-04-25T04:32:14.103Z,99859.03
2019-04-25T04:34:45.097Z,99865.47
2019-04-25T04:37:11.163Z,99872.19
2019-04-25T04:39:38.516Z,99878.88
2019-04-25T04:42:05.700Z,99874.67
2019-04-25T04:44:34.323Z,99873.16
2019-04-25T04:47:04.010Z,99876.94
2019-04-25T04:49:31.784Z,99882.50
2019-04-25T04:51:59.137Z,99874.67
2019-04-25T04:54:26.353Z,99875.73
2019-04-25T04:56:53.726Z,99878.13
2019-04-25T04:59:20.907Z,99885.52
2019-04-25T05:02:06.381Z,99886.90
2019-04-25T05:04:43.670Z,99882.36
2019-04-25T05:07:30.725Z,99877.45
2019-04-25T05:09:57.883Z,99879.78
2019-04-25T05:12:25.038Z,99881.59
2019-04-25T05:14:53.684Z,99887.94
2019-04-25T05:17:21.825Z,99881.36
2019-04-25T05:19:49.256Z,99883.41
2019-04-25T05:22:16.855Z,99880.74
2019-04-25T05:24:44.166Z,99883.91
2019-04-25T05:27:12.771Z,99890.62
2019-04-25T05:29:40.601Z,99896.17
2019-04-25T05:32:07.830Z,99887.18
2019-04-25T05:34:35.203Z,99886.80
2019-04-25T05:37:03.811Z,99878.40
2019-04-25T05:39:31.153Z,99882.70
2019-04-25T05:42:07.735Z,99895.03
2019-04-25T05:44:35.209Z,99900.72
2019-04-25T05:47:04.114Z,99886.70
2019-04-25T05:49:31.748Z,99888.81
2019-04-25T05:51:59.111Z,99889.00
2019-04-25T05:54:26.907Z,99873.66
2019-04-25T05:56:54.429Z,99866.05
2019-04-25T05:59:21.932Z,99867.50
2019-04-25T06:01:49.414Z,99864.11
2019-04-25T06:04:17.873Z,99840.63
2019-04-25T06:06:45.126Z,99846.08
2019-04-25T06:09:31.918Z,99833.16
2019-04-25T06:12:10.498Z,99831.08
2019-04-25T06:14:37.756Z,99829.08
2019-04-25T06:17:08.678Z,99840.63
2019-04-25T06:19:40.351Z,99848.74
2019-04-25T06:22:13.103Z,99855.31
2019-04-25T06:24:46.494Z,99856.05
2019-04-25T06:27:28.401Z,99867.62
2019-04-25T06:30:10.816Z,99879.17
2019-04-25T06:32:38.071Z,99881.58
2019-04-25T06:35:06.600Z,99888.54
2019-04-25T06:37:35.042Z,99888.73
2019-04-25T06:40:05.099Z,99888.86
2019-04-25T06:42:34.678Z,99894.56
2019-04-25T06:45:26.630Z,99890.41
2019-04-25T06:48:16.144Z,99893.87
2019-04-25T06:50:43.836Z,99894.95
2019-04-25T06:53:11.066Z,99896.95
2019-04-25T06:55:38.213Z,99892.27
2019-04-25T06:58:11.717Z,99900.40
2019-04-25T07:00:40.947Z,99907.87
2019-04-25T07:03:04.551Z,99902.21
2019-04-25T07:05:35.884Z,99903.08
2019-04-25T07:08:01.285Z,99898.64
2019-04-25T07:10:29.438Z,99895.13
2019-04-25T07:12:56.885Z,99889.05
2019-04-25T07:15:24.935Z,99879.46
2019-04-25T07:17:54.050Z,99889.93
2019-04-25T07:20:24.672Z,99896.77
2019-04-25T07:22:51.265Z,99903.95
2019-04-25T07:25:19.921Z,99906.09
2019-04-25T07:28:27.163Z,99911.08
2019-04-25T07:31:09.769Z,99907.19
2019-04-25T07:33:59.874Z,99913.81
2019-04-25T07:36:28.156Z,99914.47
2019-04-25T07:39:07.663Z,99922.33
2019-04-25T07:41:25.958Z,99923.57
2019-04-25T07:43:53.383Z,99918.64
2019-04-25T07:46:20.822Z,99923.39
2019-04-25T07:48:48.103Z,99913.01
2019-04-25T07:51:16.496Z,99908.35
2019-04-25T07:53:44.070Z,99904.83
2019-04-25T07:56:11.568Z,99904.86
2019-04-25T07:58:49.541Z,99897.80
2019-04-25T08:01:10.767Z,99889.32
2019-04-25T08:03:38.116Z,99891.27
2019-04-25T08:06:08.772Z,99885.53
2019-04-25T08:08:36.155Z,99896.56
2019-04-25T08:11:06.573Z,99894.69
2019-04-25T08:13:56.888Z,99900.48
2019-04-25T08:16:26.067Z,99893.39
2019-04-25T08:18:54.083Z,99889.30
2019-04-25T08:21:23.784Z,99888.22
2019-04-25T08:23:53.336Z,99884.64
2019-04-25T08:26:21.058Z,99890.69
2019-04-25T08:28:54.439Z,99882.70
2019-04-25T08:31:18.006Z,99881.31
2019-04-25T08:33:46.546Z,99876.90
2019-04-25T08:36:14.100Z,99874.94
2019-04-25T08:38:42.413Z,99869.68
2019-04-25T08:41:10.416Z,99868.75
2019-04-25T08:43:39.422Z,99868.07
2019-04-25T08:46:07.261Z,99862.56
2019-04-25T08:48:54.169Z,99863.84
2019-04-25T08:51:23.403Z,99865.31
2019-04-25T08:53:59.015Z,99868.30
2019-04-25T08:56:31.208Z,99857.52
2019-04-25T08:59:17.680Z,99855.61
2019-04-25T09:01:54.743Z,99845.28
2019-04-25T09:04:47.755Z,99850.09
2019-04-25T09:07:15.022Z,99849.27
2019-04-25T09:09:44.012Z,99847.38
2019-04-25T09:12:11.468Z,99846.61
2019-04-25T09:14:41.551Z,99845.47
2019-04-25T09:17:08.951Z,99835.75
2019-04-25T09:19:37.169Z,99842.81
2019-04-25T09:22:05.437Z,99831.08
2019-04-25T09:24:36.668Z,99832.13
2019-04-25T09:27:04.057Z,99831.25
2019-04-25T09:29:31.318Z,99831.56
2019-04-25T09:31:58.563Z,99830.72
2019-04-25T09:34:25.826Z,99827.97
2019-04-25T09:36:53.594Z,99821.41
2019-04-25T09:39:29.071Z,99815.47
2019-04-25T09:41:56.351Z,99814.15
2019-04-25T09:44:28.887Z,99802.80
2019-04-25T09:46:56.351Z,99804.39
2019-04-25T09:49:28.432Z,99796.00
2019-04-25T09:51:59.715Z,99796.66
2019-04-25T09:54:36.213Z,99801.16
2019-04-25T09:57:39.794Z,99800.59
2019-04-25T10:00:14.669Z,99790.83
2019-04-25T10:02:42.336Z,99786.39
2019-04-25T10:05:09.836Z,99784.72
2019-04-25T10:07:37.338Z,99784.00
2019-04-25T10:10:06.788Z,99784.88
2019-04-25T10:12:34.296Z,99787.34
2019-04-25T10:15:43.024Z,99774.94
2019-04-25T10:18:25.743Z,99769.14
2019-04-25T10:20:54.230Z,99767.62
2019-04-25T10:23:22.054Z,99762.38
2019-04-25T10:25:50.412Z,99764.01
2019-04-25T10:28:17.818Z,99756.56
2019-04-25T10:30:45.280Z,99753.17
2019-04-25T10:33:14.635Z,99750.23
2019-04-25T10:35:52.026Z,99752.59
2019-04-25T10:38:13.929Z,99751.14
2019-04-25T10:40:45.133Z,99745.38
2019-04-25T10:43:14.232Z,99744.65
2019-04-25T10:45:44.357Z,99737.02
2019-04-25T10:48:13.691Z,99733.66
2019-04-25T10:50:41.725Z,99719.44
2019-04-25T10:53:09.292Z,99719.95
2019-04-25T10:55:36.794Z,99719.83
2019-04-25T10:58:04.182Z,99719.48
2019-04-25T11:00:42.247Z,99705.15
2019-04-25T11:03:29.413Z,99694.30
2019-04-25T11:05:57.196Z,99686.26
2019-04-25T11:08:24.779Z,99674.98
2019-04-25T11:10:53.805Z,99667.95
2019-04-25T11:13:22.297Z,99656.20
2019-04-25T11:15:50.538Z,99649.94
2019-04-25T11:18:17.971Z,99647.88
2019-04-25T11:20:45.442Z,99645.07
2019-04-25T11:23:14.000Z,99632.75
2019-04-25T11:25:41.660Z,99623.38
2019-04-25T11:28:09.563Z,99621.53
2019-04-25T11:30:37.103Z,99619.73
2019-04-25T11:33:05.235Z,99609.62
2019-04-25T11:35:34.216Z,99606.40
2019-04-25T11:38:05.501Z,99598.70
2019-04-25T11:40:38.535Z,99598.75
2019-04-25T11:43:06.115Z,99594.11
2019-04-25T11:45:34.668Z,99582.87
2019-04-25T11:48:02.131Z,99583.90
2019-04-25T11:50:29.714Z,99581.09
2019-04-25T11:52:57.110Z,99574.96
2019-04-25T11:55:24.620Z,99571.20
2019-04-25T11:57:53.174Z,99566.80
2019-04-25T12:00:24.808Z,99565.92
2019-04-25T12:02:52.710Z,99558.78
2019-04-25T12:05:20.184Z,99554.77
2019-04-25T12:07:47.922Z,99562.23
2019-04-25T12:10:16.479Z,99568.13
2019-04-25T12:12:47.264Z,99565.74
2019-04-25T12:15:15.100Z,99563.48
2019-04-25T12:17:42.566Z,99555.16
2019-04-25T12:20:10.844Z,99550.86
2019-04-25T12:22:38.309Z,99550.96
2019-04-25T12:25:06.193Z,99545.63
2019-04-25T12:27:33.663Z,99548.74
2019-04-25T12:30:05.462Z,99549.13
2019-04-25T12:32:35.042Z,99540.78
2019-04-25T12:35:04.117Z,99530.39
2019-04-25T12:37:33.639Z,99528.97
2019-04-25T12:40:04.055Z,99533.03
2019-04-25T12:42:30.649Z,99524.34
2019-04-25T12:45:14.330Z,99527.32
2019-04-25T12:47:43.477Z,99520.31
2019-04-25T12:50:11.442Z,99518.58
2019-04-25T12:52:38.816Z,99518.69
2019-04-25T12:55:07.111Z,99506.30
2019-04-25T12:57:34.503Z,99494.47
2019-04-25T13:00:01.817Z,99497.37
2019-04-25T13:02:34.550Z,99500.19
2019-04-25T13:05:04.352Z,99502.33
2019-04-25T13:07:33.020Z,99500.38
2019-04-25T13:10:00.364Z,99495.83
2019-04-25T13:12:40.507Z,99498.86
2019-04-25T13:15:09.811Z,99491.11
2019-04-25T13:17:38.197Z,99489.34
2019-04-25T13:20:05.845Z,99488.33
2019-04-25T13:22:39.611Z,99484.03
2019-04-25T13:25:08.515Z,99480.28
2019-04-25T13:27:45.620Z,99477.61
2019-04-25T13:30:31.705Z,99468.91
2019-04-25T13:33:29.701Z,99463.12
2019-04-25T13:36:02.646Z,99456.23
2019-04-25T13:38:30.125Z,99453.84
2019-04-25T13:40:58.251Z,99450.38
2019-04-25T13:43:25.796Z,99439.38
2019-04-25T13:45:53.181Z,99432.34
2019-04-25T13:48:20.454Z,99441.16
2019-04-25T13:50:48.142Z,99430.44
2019-04-25T13:53:15.660Z,99429.50
2019-04-25T13:55:42.939Z,99424.95
2019-04-25T13:58:11.390Z,99421.23
2019-04-25T14:00:38.961Z,99415.67
2019-04-25T14:03:06.305Z,99411.66
2019-04-25T14:05:35.263Z,99404.39
2019-04-25T14:08:02.860Z,99387.90
2019-04-25T14:10:30.758Z,99389.05
2019-04-25T14:12:58.245Z,99386.16
2019-04-25T14:15:34.305Z,99371.35
2019-04-25T14:18:24.158Z,99361.41
2019-04-25T14:21:03.750Z,99343.45
2019-04-25T14:23:31.319Z,99346.08
2019-04-25T14:25:58.478Z,99341.19
2019-04-25T14:28:29.325Z,99338.52
2019-04-25T14:30:55.062Z,99333.61
2019-04-25T14:33:24.865Z,99329.52
2019-04-25T14:35:53.467Z,99334.28
2019-04-25T14:38:21.220Z,99337.69
2019-04-25T14:40:48.637Z,99336.27
2019-04-25T14:43:15.905Z,99325.62
2019-04-25T14:45:45.109Z,99324.86
2019-04-25T14:48:12.829Z,99325.72
2019-04-25T14:50:40.104Z,99324.51
2019-04-25T14:53:07.528Z,99327.72
2019-04-25T14:55:54.561Z,99327.25
2019-04-25T14:58:26.136Z,99326.61
2019-04-25T15:00:53.660Z,99322.03
2019-04-25T15:03:21.269Z,99319.25
2019-04-25T15:05:51.012Z,99306.01
2019-04-25T15:08:20.364Z,99314.63
2019-04-25T15:10:50.294Z,99313.27
2019-04-25T15:13:27.760Z,99320.81
2019-04-25T15:15:56.417Z,99315.23
2019-04-25T15:18:24.737Z,99309.95
2019-04-25T15:20:52.054Z,99309.51
2019-04-25T15:23:19.235Z,99304.20
2019-04-25T15:25:46.478Z,99306.62
2019-04-25T15:28:13.835Z,99297.92
2019-04-25T15:30:41.243Z,99299.73
2019-04-25T15:33:08.610Z,99288.58
2019-04-25T15:35:47.937Z,99283.00
2019-04-25T15:38:21.761Z,99285.05
2019-04-25T15:41:02.555Z,99286.25
2019-04-25T15:43:37.332Z,99282.43
2019-04-25T15:46:13.270Z,99271.92
2019-04-25T15:48:40.631Z,99271.13
2019-04-25T15:51:07.903Z,99273.81
2019-04-25T15:53:35.436Z,99267.17
2019-04-25T15:56:02.903Z,99261.10
2019-04-25T15:58:30.234Z,99250.07
2019-04-25T16:00:57.595Z,99253.05
2019-04-25T16:03:24.958Z,99237.69
2019-04-25T16:05:52.534Z,99238.94
2019-04-25T16:08:19.708Z,99237.84
2019-04-25T16:10:47.051Z,99240.75
2019-04-25T16:13:14.397Z,99242.78
2019-04-25T16:15:41.656Z,99241.01
2019-04-25T16:18:10.109Z,99236.09
2019-04-25T16:20:37.367Z,99231.59
2019-04-25T16:23:05.738Z,99227.98
2019-04-25T16:25:33.362Z,99227.11
2019-04-25T16:28:00.754Z,99224.30
2019-04-25T16:30:31.183Z,99228.86
2019-04-25T16:32:58.564Z,99223.45
2019-04-25T16:35:25.708Z,99224.25
2019-04-25T16:37:52.990Z,99225.38
2019-04-25T16:40:20.338Z,99231.17
2019-04-25T16:42:51.071Z,99226.60
2019-04-25T16:45:18.452Z,99229.69
2019-04-25T16:47:45.827Z,99224.98
2019-04-25T16:50:13.905Z,99229.44
2019-04-25T16:52:41.267Z,99228.12
2019-04-25T16:55:10.708Z,99224.21
2019-04-25T16:57:38.008Z,99233.96
2019-04-25T17:00:09.723Z,99233.33
2019-04-25T17:02:40.714Z,99234.19
2019-04-25T17:05:07.181Z,99231.13
2019-04-25T17:07:34.588Z,99233.55
2019-04-25T17:10:02.798Z,99237.48
2019-04-25T17:12:31.150Z,99241.09
2019-04-25T17:15:15.332Z,99231.44
2019-04-25T17:18:07.333Z,99233.72
2019-04-25T17:20:39.739Z,99228.42
2019-04-25T17:23:07.938Z,99221.91
2019-04-25T17:25:48.015Z,99215.24
2019-04-25T17:28:16.567Z,99219.55
2019-04-25T17:30:46.238Z,99218.67
2019-04-25T17:33:40.293Z,99220.94
2019-04-25T17:36:22.020Z,99223.13
2019-04-25T17:39:18.083Z,99215.37
2019-04-25T17:41:45.286Z,99210.71
2019-04-25T17:44:12.643Z,99222.27
2019-04-25T17:47:05.656Z,99223.66
2019-04-25T17:49:23.134Z,99226.84
2019-04-25T17:51:50.451Z,99225.44
2019-04-25T17:54:18.517Z,99228.84
2019-04-25T17:56:46.086Z,99227.00
2019-04-25T17:59:13.411Z,99228.72
2019-04-25T18:01:40.885Z,99227.89
2019-04-25T18:04:08.788Z,99235.50
2019-04-25T18:06:37.665Z,99239.06
2019-04-25T18:09:06.572Z,99262.20
2019-04-25T18:11:34.738Z,99261.08
2019-04-25T18:14:02.685Z,99257.45
2019-04-25T18:16:38.355Z,99261.32
2019-04-25T18:19:13.370Z,99265.34
2019-04-25T18:21:41.033Z,99279.23
2019-04-25T18:24:37.262Z,99285.16
2019-04-25T18:27:14.445Z,99290.23
2019-04-25T18:29:42.000Z,99297.83
2019-04-25T18:32:10.088Z,99317.41
2019-04-25T18:34:44.480Z,99312.06
2019-04-25T18:37:19.965Z,99323.77
2019-04-25T18:39:55.542Z,99334.36
2019-04-25T18:42:41.964Z,99350.20
2019-04-25T18:45:12.964Z,99360.91
2019-04-25T18:47:40.714Z,99362.03
2019-04-25T18:50:10.656Z,99373.25
2019-04-25T18:53:04.052Z,99383.53
2019-04-25T18:55:41.258Z,99387.94
2019-04-25T18:58:16.361Z,99402.85
2019-04-25T19:00:52.456Z,99403.73
2019-04-25T19:03:39.477Z,99411.80
2019-04-25T19:06:10.342Z,99416.55
2019-04-25T19:08:38.560Z,99426.98
2019-04-25T19:11:07.612Z,99457.04
2019-04-25T19:13:35.362Z,99477.89
2019-04-25T19:16:03.241Z,99493.38
2019-04-25T19:18:31.645Z,99498.72
2019-04-25T19:20:59.291Z,99509.11
2019-04-25T19:23:26.953Z,99511.06
2019-04-25T19:25:55.235Z,99524.49
2019-04-25T19:28:24.064Z,99539.00
2019-04-25T19:30:52.329Z,99547.67
2019-04-25T19:33:34.543Z,99557.25
2019-04-25T19:35:52.263Z,99568.81
2019-04-25T19:38:20.404Z,99575.33
2019-04-25T19:41:06.718Z,99595.97
2019-04-25T19:43:44.478Z,99600.92
2019-04-25T19:46:12.502Z,99616.16
2019-04-25T19:48:41.231Z,99631.23
2019-04-25T19:51:09.368Z,99632.95
2019-04-25T19:53:37.246Z,99624.00
2019-04-25T19:56:05.013Z,99637.53
2019-04-25T19:58:33.758Z,99643.85
2019-04-25T20:01:01.982Z,99637.78
2019-04-25T20:03:54.961Z,99652.34
2019-04-25T20:06:37.233Z,99645.73
2019-04-25T20:09:19.660Z,99649.23
2019-04-25T20:11:49.393Z,99644.06
2019-04-25T20:14:16.962Z,99647.31
2019-04-25T20:16:46.077Z,99661.30
2019-04-25T20:19:13.884Z,99656.59
2019-04-25T20:21:41.552Z,99661.45
2019-04-25T20:24:09.327Z,99667.89
2019-04-25T20:26:37.205Z,99674.23
2019-04-25T20:29:04.947Z,99688.41
2019-04-25T20:31:32.923Z,99697.39
2019-04-25T20:34:05.868Z,99705.81
2019-04-25T20:36:30.278Z,99712.23
2019-04-25T20:38:57.884Z,99714.07
2019-04-25T20:41:25.342Z,99713.00
2019-04-25T20:44:07.300Z,99720.27
2019-04-25T20:46:34.707Z,99720.90
2019-04-25T20:49:02.105Z,99728.30
2019-04-25T20:51:29.669Z,99738.12
2019-04-25T20:53:57.124Z,99745.19
2019-04-25T20:56:24.408Z,99748.52
2019-04-25T20:58:51.597Z,99750.64
2019-04-25T21:01:18.762Z,99755.78
2019-04-25T21:03:46.034Z,99754.44
2019-04-25T21:06:18.990Z,99747.50
2019-04-25T21:08:46.165Z,99747.39
2019-04-25T21:11:13.753Z,99755.77
2019-04-25T21:14:01.481Z,99778.38
2019-04-25T21:16:47.568Z,99776.61
2019-04-25T21:19:17.471Z,99776.73
2019-04-25T21:21:44.724Z,99774.70
2019-04-25T21:24:12.218Z,99763.78
2019-04-25T21:26:39.642Z,99792.33
2019-04-25T21:29:07.001Z,99794.45
2019-04-25T21:31:34.160Z,99792.25
2019-04-25T21:34:01.581Z,99792.73
2019-04-25T21:36:29.111Z,99791.02
2019-04-25T21:38:56.470Z,99791.37
2019-04-25T21:41:56.575Z,99800.67
2019-04-25T21:44:24.162Z,99791.83
2019-04-25T21:46:52.177Z,99794.85
2019-04-25T21:49:20.654Z,99788.98
2019-04-25T21:51:47.814Z,99782.91
2019-04-25T21:54:14.978Z,99779.56
2019-04-25T21:56:42.745Z,99773.17
2019-04-25T21:59:10.453Z,99773.81
2019-04-25T22:01:40.903Z,99770.38
2019-04-25T22:04:15.277Z,99761.88
2019-04-25T22:06:46.356Z,99761.55
2019-04-25T22:09:16.795Z,99771.39
2019-04-25T22:11:44.639Z,99775.22
2019-04-25T22:14:13.139Z,99772.14
2019-04-25T22:16:42.813Z,99783.16
2019-04-25T22:19:10.698Z,99789.84
2019-04-25T22:21:40.728Z,99775.84
2019-04-25T22:24:11.268Z,99779.97
2019-04-25T22:26:37.476Z,99786.59
2019-04-25T22:29:05.644Z,99777.27
2019-04-25T22:31:41.762Z,99781.66
2019-04-25T22:34:20.356Z,99773.72
2019-04-25T22:36:47.887Z,99763.87
2019-04-25T22:39:15.287Z,99769.95
2019-04-25T22:41:46.510Z,99785.09
2019-04-25T22:44:15.707Z,99803.63
2019-04-25T22:46:43.644Z,99800.63
2019-04-25T22:49:11.824Z,99799.80
2019-04-25T22:51:39.413Z,99796.80
2019-04-25T22:54:07.429Z,99787.22
2019-04-25T22:56:35.333Z,99777.32
2019-04-25T22:59:04.833Z,99781.43
2019-04-25T23:02:07.583Z,99780.64
2019-04-25T23:05:09.047Z,99759.22
2019-04-25T23:07:30.299Z,99748.20
2019-04-25T23:09:58.061Z,99766.42
2019-04-25T23:12:25.944Z,99760.34
2019-04-25T23:14:54.214Z,99756.81
2019-04-25T23:17:21.594Z,99753.82
2019-04-25T23:19:49.180Z,99774.44
2019-04-25T23:22:18.305Z,99786.27
2019-04-25T23:24:54.842Z,99766.75
2019-04-25T23:27:44.341Z,99769.24
2019-04-25T23:30:14.649Z,99777.75
2019-04-25T23:32:48.641Z,99786.80
2019-04-25T23:35:28.577Z,99786.81
2019-04-25T23:37:45.164Z,99786.23
2019-04-25T23:40:13.650Z,99785.40
2019-04-25T23:42:41.254Z,99795.55
2019-04-25T23:45:10.264Z,99796.66
2019-04-25T23:47:37.468Z,99809.00
2019-04-25T23:50:07.033Z,99809.53
2019-04-25T23:52:34.708Z,99815.28
2019-04-25T23:55:02.131Z,99808.44
2019-04-25T23:57:29.636Z,99801.28
2019-04-25T23:59:57.150Z,99791.12
